sensor_id;sensor_type;location;lat;lon;timestamp;P1;durP1;ratioP1;P2;durP2;ratioP2
22851;SDS011;11592;45.460;9.240;2023-02-18T00:01:31;13.90;;;8.45;;
22851;SDS011;11592;45.460;9.240;2023-02-18T00:03:58;13.93;;;7.82;;
22851;SDS011;11592;45.460;9.240;2023-02-18T00:06:27;15.73;;;8.98;;
22851;SDS011;11592;45.460;9.240;2023-02-18T00:08:56;12.27;;;7.68;;
22851;SDS011;11592;45.460;9.240;2023-02-18T00:11:28;14.00;;;8.23;;
22851;SDS011;11592;45.460;9.240;2023-02-18T00:13:57;12.10;;;7.47;;
22851;SDS011;11592;45.460;9.240;2023-02-18T00:16:25;10.68;;;7.55;;
22851;SDS011;11592;45.460;9.240;2023-02-18T00:18:54;14.07;;;8.27;;
22851;SDS011;11592;45.460;9.240;2023-02-18T00:21:22;14.57;;;8.20;;
22851;SDS011;11592;45.460;9.240;2023-02-18T00:23:49;15.00;;;8.52;;
22851;SDS011;11592;45.460;9.240;2023-02-18T00:26:16;15.18;;;9.05;;
22851;SDS011;11592;45.460;9.240;2023-02-18T00:28:44;12.40;;;7.78;;
22851;SDS011;11592;45.460;9.240;2023-02-18T00:31:15;16.67;;;7.63;;
22851;SDS011;11592;45.460;9.240;2023-02-18T00:33:44;12.98;;;7.95;;
22851;SDS011;11592;45.460;9.240;2023-02-18T00:36:12;13.00;;;8.05;;
22851;SDS011;11592;45.460;9.240;2023-02-18T00:38:45;13.07;;;8.20;;
22851;SDS011;11592;45.460;9.240;2023-02-18T00:41:13;13.43;;;8.00;;
22851;SDS011;11592;45.460;9.240;2023-02-18T00:43:41;15.57;;;8.32;;
22851;SDS011;11592;45.460;9.240;2023-02-18T00:46:08;14.50;;;8.40;;
22851;SDS011;11592;45.460;9.240;2023-02-18T00:48:36;12.30;;;7.93;;
22851;SDS011;11592;45.460;9.240;2023-02-18T00:51:03;13.68;;;7.82;;
22851;SDS011;11592;45.460;9.240;2023-02-18T00:53:30;12.82;;;7.85;;
22851;SDS011;11592;45.460;9.240;2023-02-18T00:55:57;14.00;;;8.23;;
22851;SDS011;11592;45.460;9.240;2023-02-18T00:58:24;15.50;;;7.65;;
22851;SDS011;11592;45.460;9.240;2023-02-18T01:00:51;15.25;;;8.20;;
22851;SDS011;11592;45.460;9.240;2023-02-18T01:03:20;14.80;;;7.68;;
22851;SDS011;11592;45.460;9.240;2023-02-18T01:05:49;12.30;;;8.25;;
22851;SDS011;11592;45.460;9.240;2023-02-18T01:08:16;14.20;;;8.10;;
22851;SDS011;11592;45.460;9.240;2023-02-18T01:10:45;13.32;;;8.85;;
22851;SDS011;11592;45.460;9.240;2023-02-18T01:13:13;11.27;;;7.63;;
22851;SDS011;11592;45.460;9.240;2023-02-18T01:15:41;11.75;;;7.68;;
22851;SDS011;11592;45.460;9.240;2023-02-18T01:18:09;12.70;;;8.10;;
22851;SDS011;11592;45.460;9.240;2023-02-18T01:20:36;11.82;;;8.15;;
22851;SDS011;11592;45.460;9.240;2023-02-18T01:23:04;11.65;;;8.23;;
22851;SDS011;11592;45.460;9.240;2023-02-18T01:25:31;12.77;;;8.20;;
22851;SDS011;11592;45.460;9.240;2023-02-18T01:27:58;10.52;;;7.43;;
22851;SDS011;11592;45.460;9.240;2023-02-18T01:30:25;13.15;;;7.88;;
22851;SDS011;11592;45.460;9.240;2023-02-18T01:32:52;15.40;;;7.68;;
22851;SDS011;11592;45.460;9.240;2023-02-18T01:35:20;14.77;;;8.35;;
22851;SDS011;11592;45.460;9.240;2023-02-18T01:37:49;11.15;;;7.82;;
22851;SDS011;11592;45.460;9.240;2023-02-18T01:40:21;13.18;;;7.68;;
22851;SDS011;11592;45.460;9.240;2023-02-18T01:42:50;13.70;;;8.20;;
22851;SDS011;11592;45.460;9.240;2023-02-18T01:46:01;15.75;;;8.70;;
22851;SDS011;11592;45.460;9.240;2023-02-18T01:51:18;16.88;;;8.88;;
22851;SDS011;11592;45.460;9.240;2023-02-18T01:53:51;15.05;;;7.70;;
22851;SDS011;11592;45.460;9.240;2023-02-18T01:56:49;12.50;;;7.35;;
22851;SDS011;11592;45.460;9.240;2023-02-18T01:59:20;12.57;;;7.97;;
22851;SDS011;11592;45.460;9.240;2023-02-18T02:01:51;13.77;;;7.65;;
22851;SDS011;11592;45.460;9.240;2023-02-18T02:04:19;11.82;;;7.93;;
22851;SDS011;11592;45.460;9.240;2023-02-18T02:06:46;13.27;;;8.63;;
22851;SDS011;11592;45.460;9.240;2023-02-18T02:09:14;13.45;;;8.35;;
22851;SDS011;11592;45.460;9.240;2023-02-18T02:45:47;14.70;;;8.15;;
22851;SDS011;11592;45.460;9.240;2023-02-18T02:48:26;13.85;;;7.90;;
22851;SDS011;11592;45.460;9.240;2023-02-18T02:53:40;13.57;;;8.23;;
22851;SDS011;11592;45.460;9.240;2023-02-18T02:56:12;13.80;;;8.32;;
22851;SDS011;11592;45.460;9.240;2023-02-18T02:58:54;12.75;;;8.07;;
22851;SDS011;11592;45.460;9.240;2023-02-18T03:17:49;14.82;;;9.05;;
22851;SDS011;11592;45.460;9.240;2023-02-18T03:20:25;16.45;;;8.82;;
22851;SDS011;11592;45.460;9.240;2023-02-18T03:22:57;13.13;;;9.23;;
22851;SDS011;11592;45.460;9.240;2023-02-18T03:25:26;14.38;;;8.70;;
22851;SDS011;11592;45.460;9.240;2023-02-18T03:27:55;12.77;;;8.65;;
22851;SDS011;11592;45.460;9.240;2023-02-18T03:30:39;15.75;;;9.43;;
22851;SDS011;11592;45.460;9.240;2023-02-18T03:33:10;14.05;;;8.90;;
22851;SDS011;11592;45.460;9.240;2023-02-18T03:35:41;13.70;;;8.95;;
22851;SDS011;11592;45.460;9.240;2023-02-18T03:40:56;16.83;;;9.82;;
22851;SDS011;11592;45.460;9.240;2023-02-18T03:43:23;15.75;;;8.45;;
22851;SDS011;11592;45.460;9.240;2023-02-18T03:45:50;15.90;;;8.75;;
22851;SDS011;11592;45.460;9.240;2023-02-18T03:48:17;11.68;;;8.02;;
22851;SDS011;11592;45.460;9.240;2023-02-18T03:50:44;13.40;;;8.88;;
22851;SDS011;11592;45.460;9.240;2023-02-18T03:53:10;13.45;;;8.80;;
22851;SDS011;11592;45.460;9.240;2023-02-18T03:55:37;14.70;;;8.68;;
22851;SDS011;11592;45.460;9.240;2023-02-18T03:58:04;14.90;;;9.27;;
22851;SDS011;11592;45.460;9.240;2023-02-18T04:00:31;15.70;;;9.07;;
22851;SDS011;11592;45.460;9.240;2023-02-18T04:02:58;17.88;;;9.43;;
22851;SDS011;11592;45.460;9.240;2023-02-18T04:05:24;15.18;;;8.93;;
22851;SDS011;11592;45.460;9.240;2023-02-18T04:07:51;18.27;;;9.40;;
22851;SDS011;11592;45.460;9.240;2023-02-18T04:10:18;14.57;;;9.55;;
22851;SDS011;11592;45.460;9.240;2023-02-18T04:12:45;20.08;;;9.10;;
22851;SDS011;11592;45.460;9.240;2023-02-18T04:15:12;15.32;;;9.48;;
22851;SDS011;11592;45.460;9.240;2023-02-18T04:17:39;16.27;;;10.02;;
22851;SDS011;11592;45.460;9.240;2023-02-18T04:20:06;16.50;;;10.40;;
22851;SDS011;11592;45.460;9.240;2023-02-18T04:22:33;16.00;;;10.18;;
22851;SDS011;11592;45.460;9.240;2023-02-18T04:25:00;14.90;;;9.55;;
22851;SDS011;11592;45.460;9.240;2023-02-18T04:27:27;17.52;;;11.05;;
22851;SDS011;11592;45.460;9.240;2023-02-18T04:29:54;15.57;;;9.95;;
22851;SDS011;11592;45.460;9.240;2023-02-18T04:32:20;20.83;;;11.00;;
22851;SDS011;11592;45.460;9.240;2023-02-18T04:34:47;15.52;;;10.05;;
22851;SDS011;11592;45.460;9.240;2023-02-18T04:37:14;16.70;;;10.68;;
22851;SDS011;11592;45.460;9.240;2023-02-18T04:39:41;17.08;;;10.90;;
22851;SDS011;11592;45.460;9.240;2023-02-18T04:42:07;18.92;;;11.55;;
22851;SDS011;11592;45.460;9.240;2023-02-18T04:44:35;17.52;;;10.95;;
22851;SDS011;11592;45.460;9.240;2023-02-18T04:47:04;18.17;;;11.65;;
22851;SDS011;11592;45.460;9.240;2023-02-18T04:49:31;18.13;;;11.00;;
22851;SDS011;11592;45.460;9.240;2023-02-18T04:51:59;22.42;;;12.63;;
22851;SDS011;11592;45.460;9.240;2023-02-18T04:54:25;22.13;;;11.98;;
22851;SDS011;11592;45.460;9.240;2023-02-18T04:56:52;28.23;;;12.38;;
22851;SDS011;11592;45.460;9.240;2023-02-18T04:59:19;19.45;;;12.25;;
22851;SDS011;11592;45.460;9.240;2023-02-18T05:01:46;21.17;;;12.73;;
22851;SDS011;11592;45.460;9.240;2023-02-18T05:04:12;22.25;;;12.73;;
22851;SDS011;11592;45.460;9.240;2023-02-18T05:06:39;21.40;;;12.63;;
22851;SDS011;11592;45.460;9.240;2023-02-18T05:09:08;23.77;;;12.80;;
22851;SDS011;11592;45.460;9.240;2023-02-18T05:11:35;22.35;;;13.20;;
22851;SDS011;11592;45.460;9.240;2023-02-18T05:14:02;22.45;;;13.75;;
22851;SDS011;11592;45.460;9.240;2023-02-18T05:16:30;23.20;;;14.18;;
22851;SDS011;11592;45.460;9.240;2023-02-18T05:18:57;26.65;;;15.13;;
22851;SDS011;11592;45.460;9.240;2023-02-18T05:21:24;26.70;;;15.55;;
22851;SDS011;11592;45.460;9.240;2023-02-18T05:23:51;25.92;;;15.35;;
22851;SDS011;11592;45.460;9.240;2023-02-18T05:26:18;24.70;;;14.73;;
22851;SDS011;11592;45.460;9.240;2023-02-18T05:28:45;25.70;;;15.88;;
22851;SDS011;11592;45.460;9.240;2023-02-18T05:31:12;29.67;;;16.73;;
22851;SDS011;11592;45.460;9.240;2023-02-18T05:33:39;26.92;;;16.77;;
22851;SDS011;11592;45.460;9.240;2023-02-18T05:36:06;29.98;;;16.63;;
22851;SDS011;11592;45.460;9.240;2023-02-18T05:38:34;26.63;;;15.52;;
22851;SDS011;11592;45.460;9.240;2023-02-18T05:41:00;26.05;;;16.38;;
22851;SDS011;11592;45.460;9.240;2023-02-18T05:43:27;30.70;;;16.73;;
22851;SDS011;11592;45.460;9.240;2023-02-18T05:45:54;28.50;;;17.27;;
22851;SDS011;11592;45.460;9.240;2023-02-18T05:48:21;29.95;;;16.95;;
22851;SDS011;11592;45.460;9.240;2023-02-18T05:50:47;30.67;;;17.58;;
22851;SDS011;11592;45.460;9.240;2023-02-18T05:53:19;26.98;;;16.30;;
22851;SDS011;11592;45.460;9.240;2023-02-18T05:55:45;35.10;;;17.75;;
22851;SDS011;11592;45.460;9.240;2023-02-18T05:58:12;30.08;;;17.45;;
22851;SDS011;11592;45.460;9.240;2023-02-18T06:00:39;31.85;;;18.08;;
22851;SDS011;11592;45.460;9.240;2023-02-18T06:03:06;31.70;;;18.40;;
22851;SDS011;11592;45.460;9.240;2023-02-18T06:05:33;29.95;;;18.38;;
22851;SDS011;11592;45.460;9.240;2023-02-18T06:08:00;32.85;;;17.17;;
22851;SDS011;11592;45.460;9.240;2023-02-18T06:10:26;29.33;;;17.73;;
22851;SDS011;11592;45.460;9.240;2023-02-18T06:12:53;30.00;;;17.85;;
22851;SDS011;11592;45.460;9.240;2023-02-18T06:15:20;31.95;;;19.00;;
22851;SDS011;11592;45.460;9.240;2023-02-18T06:17:47;35.45;;;19.80;;
22851;SDS011;11592;45.460;9.240;2023-02-18T06:20:13;33.33;;;18.75;;
22851;SDS011;11592;45.460;9.240;2023-02-18T06:22:40;34.00;;;19.00;;
22851;SDS011;11592;45.460;9.240;2023-02-18T06:25:07;29.23;;;18.05;;
22851;SDS011;11592;45.460;9.240;2023-02-18T06:27:34;33.65;;;19.13;;
22851;SDS011;11592;45.460;9.240;2023-02-18T06:30:00;29.73;;;18.70;;
22851;SDS011;11592;45.460;9.240;2023-02-18T06:32:27;34.83;;;18.48;;
22851;SDS011;11592;45.460;9.240;2023-02-18T06:34:54;29.48;;;17.70;;
22851;SDS011;11592;45.460;9.240;2023-02-18T06:37:21;35.58;;;20.25;;
22851;SDS011;11592;45.460;9.240;2023-02-18T06:39:48;32.35;;;19.25;;
22851;SDS011;11592;45.460;9.240;2023-02-18T06:42:15;29.45;;;18.40;;
22851;SDS011;11592;45.460;9.240;2023-02-18T06:44:41;32.83;;;19.58;;
22851;SDS011;11592;45.460;9.240;2023-02-18T06:47:08;39.28;;;19.73;;
22851;SDS011;11592;45.460;9.240;2023-02-18T06:49:36;34.70;;;18.73;;
22851;SDS011;11592;45.460;9.240;2023-02-18T06:52:04;31.67;;;19.38;;
22851;SDS011;11592;45.460;9.240;2023-02-18T06:54:31;34.10;;;19.77;;
22851;SDS011;11592;45.460;9.240;2023-02-18T06:56:58;34.10;;;19.67;;
22851;SDS011;11592;45.460;9.240;2023-02-18T06:59:25;39.65;;;20.17;;
22851;SDS011;11592;45.460;9.240;2023-02-18T07:01:52;36.35;;;18.58;;
22851;SDS011;11592;45.460;9.240;2023-02-18T07:04:19;35.42;;;19.15;;
22851;SDS011;11592;45.460;9.240;2023-02-18T07:06:46;36.60;;;18.65;;
22851;SDS011;11592;45.460;9.240;2023-02-18T07:09:13;37.72;;;18.73;;
22851;SDS011;11592;45.460;9.240;2023-02-18T07:11:40;30.52;;;19.33;;
22851;SDS011;11592;45.460;9.240;2023-02-18T07:14:06;34.30;;;19.40;;
22851;SDS011;11592;45.460;9.240;2023-02-18T07:16:33;35.05;;;18.90;;
22851;SDS011;11592;45.460;9.240;2023-02-18T07:19:00;38.92;;;19.88;;
22851;SDS011;11592;45.460;9.240;2023-02-18T07:21:27;33.35;;;19.70;;
22851;SDS011;11592;45.460;9.240;2023-02-18T07:23:53;39.55;;;20.08;;
22851;SDS011;11592;45.460;9.240;2023-02-18T07:26:20;39.72;;;20.65;;
22851;SDS011;11592;45.460;9.240;2023-02-18T07:28:47;35.80;;;20.85;;
22851;SDS011;11592;45.460;9.240;2023-02-18T07:31:14;37.95;;;21.08;;
22851;SDS011;11592;45.460;9.240;2023-02-18T07:33:41;39.33;;;23.27;;
22851;SDS011;11592;45.460;9.240;2023-02-18T07:36:08;37.38;;;22.88;;
22851;SDS011;11592;45.460;9.240;2023-02-18T07:38:35;40.67;;;22.92;;
22851;SDS011;11592;45.460;9.240;2023-02-18T07:41:02;42.95;;;24.05;;
22851;SDS011;11592;45.460;9.240;2023-02-18T07:43:29;39.83;;;22.80;;
22851;SDS011;11592;45.460;9.240;2023-02-18T07:45:56;41.15;;;24.13;;
22851;SDS011;11592;45.460;9.240;2023-02-18T07:48:23;40.72;;;21.98;;
22851;SDS011;11592;45.460;9.240;2023-02-18T07:50:49;35.25;;;21.65;;
22851;SDS011;11592;45.460;9.240;2023-02-18T07:53:16;34.78;;;19.80;;
22851;SDS011;11592;45.460;9.240;2023-02-18T07:55:43;42.13;;;22.83;;
22851;SDS011;11592;45.460;9.240;2023-02-18T07:58:20;34.35;;;20.42;;
22851;SDS011;11592;45.460;9.240;2023-02-18T08:00:50;34.40;;;20.27;;
22851;SDS011;11592;45.460;9.240;2023-02-18T08:03:26;35.95;;;19.77;;
22851;SDS011;11592;45.460;9.240;2023-02-18T08:05:54;35.00;;;21.05;;
22851;SDS011;11592;45.460;9.240;2023-02-18T08:08:23;36.78;;;19.65;;
22851;SDS011;11592;45.460;9.240;2023-02-18T08:10:52;36.58;;;20.70;;
22851;SDS011;11592;45.460;9.240;2023-02-18T08:13:20;33.47;;;19.88;;
22851;SDS011;11592;45.460;9.240;2023-02-18T08:15:47;34.15;;;19.95;;
22851;SDS011;11592;45.460;9.240;2023-02-18T08:18:17;40.90;;;19.77;;
22851;SDS011;11592;45.460;9.240;2023-02-18T08:20:46;31.52;;;18.77;;
22851;SDS011;11592;45.460;9.240;2023-02-18T08:23:14;33.95;;;19.67;;
22851;SDS011;11592;45.460;9.240;2023-02-18T08:25:48;39.40;;;20.40;;
22851;SDS011;11592;45.460;9.240;2023-02-18T08:28:16;39.75;;;20.20;;
22851;SDS011;11592;45.460;9.240;2023-02-18T08:30:48;33.35;;;20.08;;
22851;SDS011;11592;45.460;9.240;2023-02-18T08:33:16;43.13;;;21.45;;
22851;SDS011;11592;45.460;9.240;2023-02-18T08:35:44;38.55;;;20.73;;
22851;SDS011;11592;45.460;9.240;2023-02-18T08:38:12;32.63;;;20.90;;
22851;SDS011;11592;45.460;9.240;2023-02-18T08:40:38;35.97;;;20.45;;
22851;SDS011;11592;45.460;9.240;2023-02-18T08:43:08;34.35;;;20.10;;
22851;SDS011;11592;45.460;9.240;2023-02-18T08:45:36;33.13;;;20.38;;
22851;SDS011;11592;45.460;9.240;2023-02-18T08:48:04;34.40;;;19.85;;
22851;SDS011;11592;45.460;9.240;2023-02-18T08:50:44;39.00;;;20.17;;
22851;SDS011;11592;45.460;9.240;2023-02-18T08:53:10;37.08;;;20.08;;
22851;SDS011;11592;45.460;9.240;2023-02-18T08:55:38;38.05;;;20.92;;
22851;SDS011;11592;45.460;9.240;2023-02-18T08:58:06;31.90;;;19.80;;
22851;SDS011;11592;45.460;9.240;2023-02-18T09:00:33;34.28;;;21.23;;
22851;SDS011;11592;45.460;9.240;2023-02-18T09:03:01;37.15;;;21.05;;
22851;SDS011;11592;45.460;9.240;2023-02-18T09:05:28;35.70;;;20.27;;
22851;SDS011;11592;45.460;9.240;2023-02-18T09:07:55;34.90;;;20.83;;
22851;SDS011;11592;45.460;9.240;2023-02-18T09:10:22;38.80;;;21.98;;
22851;SDS011;11592;45.460;9.240;2023-02-18T09:12:49;37.67;;;21.95;;
22851;SDS011;11592;45.460;9.240;2023-02-18T09:15:16;35.90;;;21.33;;
22851;SDS011;11592;45.460;9.240;2023-02-18T09:17:43;36.25;;;22.35;;
22851;SDS011;11592;45.460;9.240;2023-02-18T09:20:10;33.53;;;20.17;;
22851;SDS011;11592;45.460;9.240;2023-02-18T09:22:37;35.53;;;20.92;;
22851;SDS011;11592;45.460;9.240;2023-02-18T09:25:04;36.50;;;21.70;;
22851;SDS011;11592;45.460;9.240;2023-02-18T09:27:32;34.78;;;20.40;;
22851;SDS011;11592;45.460;9.240;2023-02-18T09:29:59;34.15;;;20.38;;
22851;SDS011;11592;45.460;9.240;2023-02-18T09:32:26;30.15;;;18.73;;
22851;SDS011;11592;45.460;9.240;2023-02-18T09:35:01;29.03;;;16.37;;
22851;SDS011;11592;45.460;9.240;2023-02-18T09:37:29;33.30;;;18.30;;
22851;SDS011;11592;45.460;9.240;2023-02-18T09:39:56;27.20;;;15.85;;
22851;SDS011;11592;45.460;9.240;2023-02-18T09:42:31;27.48;;;15.48;;
22851;SDS011;11592;45.460;9.240;2023-02-18T09:45:01;25.13;;;15.23;;
22851;SDS011;11592;45.460;9.240;2023-02-18T09:47:36;24.95;;;14.48;;
22851;SDS011;11592;45.460;9.240;2023-02-18T09:52:45;23.25;;;14.38;;
22851;SDS011;11592;45.460;9.240;2023-02-18T09:55:34;25.00;;;14.95;;
22851;SDS011;11592;45.460;9.240;2023-02-18T09:58:06;23.50;;;15.05;;
22851;SDS011;11592;45.460;9.240;2023-02-18T10:00:40;24.33;;;13.73;;
22851;SDS011;11592;45.460;9.240;2023-02-18T10:03:20;21.40;;;13.38;;
22851;SDS011;11592;45.460;9.240;2023-02-18T10:05:52;23.75;;;12.77;;
22851;SDS011;11592;45.460;9.240;2023-02-18T10:08:27;20.23;;;13.00;;
22851;SDS011;11592;45.460;9.240;2023-02-18T10:10:55;22.60;;;13.35;;
22851;SDS011;11592;45.460;9.240;2023-02-18T10:13:24;22.30;;;14.07;;
22851;SDS011;11592;45.460;9.240;2023-02-18T10:15:53;22.35;;;11.88;;
22851;SDS011;11592;45.460;9.240;2023-02-18T10:18:27;16.45;;;11.80;;
22851;SDS011;11592;45.460;9.240;2023-02-18T10:21:10;24.02;;;13.55;;
22851;SDS011;11592;45.460;9.240;2023-02-18T10:23:51;21.13;;;12.77;;
22851;SDS011;11592;45.460;9.240;2023-02-18T10:26:25;22.40;;;12.90;;
22851;SDS011;11592;45.460;9.240;2023-02-18T10:28:54;20.45;;;13.00;;
22851;SDS011;11592;45.460;9.240;2023-02-18T10:31:29;21.20;;;11.90;;
22851;SDS011;11592;45.460;9.240;2023-02-18T10:37:00;22.13;;;11.48;;
22851;SDS011;11592;45.460;9.240;2023-02-18T10:39:47;17.58;;;11.07;;
22851;SDS011;11592;45.460;9.240;2023-02-18T10:47:57;16.90;;;11.10;;
22851;SDS011;11592;45.460;9.240;2023-02-18T10:50:40;15.75;;;10.88;;
22851;SDS011;11592;45.460;9.240;2023-02-18T10:53:32;18.45;;;10.90;;
22851;SDS011;11592;45.460;9.240;2023-02-18T10:56:00;21.13;;;12.10;;
22851;SDS011;11592;45.460;9.240;2023-02-18T10:58:32;23.83;;;12.30;;
22851;SDS011;11592;45.460;9.240;2023-02-18T11:01:02;18.67;;;12.23;;
22851;SDS011;11592;45.460;9.240;2023-02-18T11:03:41;18.60;;;12.10;;
22851;SDS011;11592;45.460;9.240;2023-02-18T11:09:02;22.10;;;12.50;;
22851;SDS011;11592;45.460;9.240;2023-02-18T11:11:33;20.67;;;12.57;;
22851;SDS011;11592;45.460;9.240;2023-02-18T11:14:05;19.77;;;12.35;;
22851;SDS011;11592;45.460;9.240;2023-02-18T11:16:38;18.25;;;11.95;;
22851;SDS011;11592;45.460;9.240;2023-02-18T11:22:05;19.08;;;11.50;;
22851;SDS011;11592;45.460;9.240;2023-02-18T11:24:41;17.92;;;10.63;;
22851;SDS011;11592;45.460;9.240;2023-02-18T11:27:17;14.95;;;9.48;;
22851;SDS011;11592;45.460;9.240;2023-02-18T11:29:57;11.23;;;8.38;;
22851;SDS011;11592;45.460;9.240;2023-02-18T11:32:33;13.38;;;7.65;;
22851;SDS011;11592;45.460;9.240;2023-02-18T11:35:04;11.68;;;8.60;;
22851;SDS011;11592;45.460;9.240;2023-02-18T11:37:31;10.65;;;7.72;;
22851;SDS011;11592;45.460;9.240;2023-02-18T11:40:01;11.70;;;9.15;;
22851;SDS011;11592;45.460;9.240;2023-02-18T11:42:28;13.00;;;9.07;;
22851;SDS011;11592;45.460;9.240;2023-02-18T11:44:57;14.02;;;9.32;;
22851;SDS011;11592;45.460;9.240;2023-02-18T11:47:35;14.38;;;10.13;;
22851;SDS011;11592;45.460;9.240;2023-02-18T11:52:37;14.48;;;10.93;;
22851;SDS011;11592;45.460;9.240;2023-02-18T11:57:47;12.75;;;9.88;;
22851;SDS011;11592;45.460;9.240;2023-02-18T12:06:02;12.50;;;9.35;;
22851;SDS011;11592;45.460;9.240;2023-02-18T12:08:42;15.10;;;10.32;;
22851;SDS011;11592;45.460;9.240;2023-02-18T12:12:02;15.38;;;11.07;;
22851;SDS011;11592;45.460;9.240;2023-02-18T12:14:20;16.90;;;10.55;;
22851;SDS011;11592;45.460;9.240;2023-02-18T12:22:12;11.55;;;9.35;;
22851;SDS011;11592;45.460;9.240;2023-02-18T12:41:26;9.48;;;7.95;;
22851;SDS011;11592;45.460;9.240;2023-02-18T12:50:00;8.57;;;6.10;;
22851;SDS011;11592;45.460;9.240;2023-02-18T13:15:10;9.20;;;5.60;;
22851;SDS011;11592;45.460;9.240;2023-02-18T13:17:39;10.35;;;6.32;;
22851;SDS011;11592;45.460;9.240;2023-02-18T13:22:47;9.18;;;6.00;;
22851;SDS011;11592;45.460;9.240;2023-02-18T13:25:16;6.65;;;4.90;;
22851;SDS011;11592;45.460;9.240;2023-02-18T13:27:47;8.57;;;5.85;;
22851;SDS011;11592;45.460;9.240;2023-02-18T13:30:49;9.15;;;5.65;;
22851;SDS011;11592;45.460;9.240;2023-02-18T13:33:22;7.85;;;5.63;;
22851;SDS011;11592;45.460;9.240;2023-02-18T13:38:27;8.80;;;6.00;;
22851;SDS011;11592;45.460;9.240;2023-02-18T13:41:12;8.32;;;5.93;;
22851;SDS011;11592;45.460;9.240;2023-02-18T13:43:39;8.32;;;5.60;;
22851;SDS011;11592;45.460;9.240;2023-02-18T13:48:33;7.60;;;5.78;;
22851;SDS011;11592;45.460;9.240;2023-02-18T13:51:07;9.25;;;6.38;;
22851;SDS011;11592;45.460;9.240;2023-02-18T13:53:36;7.03;;;5.97;;
22851;SDS011;11592;45.460;9.240;2023-02-18T14:02:28;8.50;;;6.15;;
22851;SDS011;11592;45.460;9.240;2023-02-18T14:05:01;13.63;;;6.25;;
22851;SDS011;11592;45.460;9.240;2023-02-18T14:07:46;9.00;;;7.15;;
22851;SDS011;11592;45.460;9.240;2023-02-18T14:23:42;8.90;;;6.30;;
22851;SDS011;11592;45.460;9.240;2023-02-18T14:26:35;12.40;;;7.07;;
22851;SDS011;11592;45.460;9.240;2023-02-18T14:32:10;9.60;;;5.00;;
22851;SDS011;11592;45.460;9.240;2023-02-18T14:35:16;6.85;;;5.25;;
22851;SDS011;11592;45.460;9.240;2023-02-18T14:49:53;5.97;;;4.50;;
22851;SDS011;11592;45.460;9.240;2023-02-18T14:52:17;5.25;;;3.75;;
22851;SDS011;11592;45.460;9.240;2023-02-18T14:54:48;6.40;;;4.00;;
22851;SDS011;11592;45.460;9.240;2023-02-18T14:57:16;9.82;;;4.50;;
22851;SDS011;11592;45.460;9.240;2023-02-18T14:59:45;7.30;;;3.80;;
22851;SDS011;11592;45.460;9.240;2023-02-18T15:02:21;7.18;;;4.45;;
22851;SDS011;11592;45.460;9.240;2023-02-18T15:04:52;5.15;;;3.42;;
22851;SDS011;11592;45.460;9.240;2023-02-18T15:07:20;6.10;;;4.35;;
22851;SDS011;11592;45.460;9.240;2023-02-18T15:09:53;7.25;;;4.45;;
22851;SDS011;11592;45.460;9.240;2023-02-18T15:12:21;6.47;;;4.13;;
22851;SDS011;11592;45.460;9.240;2023-02-18T15:14:51;13.55;;;4.18;;
22851;SDS011;11592;45.460;9.240;2023-02-18T15:17:21;6.38;;;3.97;;
22851;SDS011;11592;45.460;9.240;2023-02-18T15:19:56;6.00;;;3.97;;
22851;SDS011;11592;45.460;9.240;2023-02-18T15:22:30;7.10;;;4.70;;
22851;SDS011;11592;45.460;9.240;2023-02-18T15:24:59;6.70;;;4.72;;
22851;SDS011;11592;45.460;9.240;2023-02-18T15:27:30;7.78;;;4.60;;
22851;SDS011;11592;45.460;9.240;2023-02-18T15:32:36;8.57;;;5.00;;
22851;SDS011;11592;45.460;9.240;2023-02-18T15:35:13;7.95;;;4.22;;
22851;SDS011;11592;45.460;9.240;2023-02-18T15:37:45;6.78;;;4.82;;
22851;SDS011;11592;45.460;9.240;2023-02-18T15:40:17;7.38;;;4.45;;
22851;SDS011;11592;45.460;9.240;2023-02-18T15:42:45;9.60;;;4.45;;
22851;SDS011;11592;45.460;9.240;2023-02-18T15:45:18;7.00;;;4.25;;
22851;SDS011;11592;45.460;9.240;2023-02-18T15:47:52;6.28;;;3.97;;
22851;SDS011;11592;45.460;9.240;2023-02-18T15:53:02;8.55;;;4.15;;
22851;SDS011;11592;45.460;9.240;2023-02-18T15:55:35;8.25;;;4.70;;
22851;SDS011;11592;45.460;9.240;2023-02-18T15:58:06;6.82;;;4.18;;
22851;SDS011;11592;45.460;9.240;2023-02-18T16:00:40;8.13;;;4.53;;
22851;SDS011;11592;45.460;9.240;2023-02-18T16:03:25;6.93;;;4.07;;
22851;SDS011;11592;45.460;9.240;2023-02-18T16:06:15;8.02;;;4.18;;
22851;SDS011;11592;45.460;9.240;2023-02-18T16:12:04;11.38;;;3.90;;
22851;SDS011;11592;45.460;9.240;2023-02-18T16:14:56;6.32;;;4.18;;
22851;SDS011;11592;45.460;9.240;2023-02-18T16:17:26;6.93;;;4.05;;
22851;SDS011;11592;45.460;9.240;2023-02-18T16:22:32;8.43;;;4.00;;
22851;SDS011;11592;45.460;9.240;2023-02-18T16:27:48;7.03;;;4.28;;
22851;SDS011;11592;45.460;9.240;2023-02-18T16:30:20;7.28;;;3.90;;
22851;SDS011;11592;45.460;9.240;2023-02-18T16:32:52;9.00;;;4.57;;
22851;SDS011;11592;45.460;9.240;2023-02-18T16:35:20;6.40;;;3.72;;
22851;SDS011;11592;45.460;9.240;2023-02-18T16:37:48;6.72;;;3.85;;
22851;SDS011;11592;45.460;9.240;2023-02-18T16:40:21;6.85;;;3.67;;
22851;SDS011;11592;45.460;9.240;2023-02-18T16:42:56;7.50;;;3.50;;
22851;SDS011;11592;45.460;9.240;2023-02-18T16:45:32;5.05;;;3.13;;
22851;SDS011;11592;45.460;9.240;2023-02-18T16:48:05;5.60;;;3.30;;
22851;SDS011;11592;45.460;9.240;2023-02-18T16:50:32;5.65;;;3.65;;
22851;SDS011;11592;45.460;9.240;2023-02-18T16:52:59;5.22;;;3.47;;
22851;SDS011;11592;45.460;9.240;2023-02-18T16:55:27;6.68;;;3.65;;
22851;SDS011;11592;45.460;9.240;2023-02-18T16:57:55;5.75;;;3.40;;
22851;SDS011;11592;45.460;9.240;2023-02-18T17:00:22;6.43;;;3.80;;
22851;SDS011;11592;45.460;9.240;2023-02-18T17:02:50;8.23;;;3.90;;
22851;SDS011;11592;45.460;9.240;2023-02-18T17:05:20;8.88;;;4.72;;
22851;SDS011;11592;45.460;9.240;2023-02-18T17:07:52;6.90;;;4.20;;
22851;SDS011;11592;45.460;9.240;2023-02-18T17:10:20;11.90;;;4.05;;
22851;SDS011;11592;45.460;9.240;2023-02-18T17:12:47;10.65;;;4.50;;
22851;SDS011;11592;45.460;9.240;2023-02-18T17:15:29;8.77;;;5.72;;
22851;SDS011;11592;45.460;9.240;2023-02-18T17:17:59;9.75;;;4.40;;
22851;SDS011;11592;45.460;9.240;2023-02-18T17:20:27;7.53;;;4.60;;
22851;SDS011;11592;45.460;9.240;2023-02-18T17:22:56;9.13;;;4.57;;
22851;SDS011;11592;45.460;9.240;2023-02-18T17:25:27;10.80;;;4.53;;
22851;SDS011;11592;45.460;9.240;2023-02-18T17:27:56;6.30;;;4.15;;
22851;SDS011;11592;45.460;9.240;2023-02-18T17:30:23;8.85;;;4.40;;
22851;SDS011;11592;45.460;9.240;2023-02-18T17:32:50;6.40;;;3.80;;
22851;SDS011;11592;45.460;9.240;2023-02-18T17:35:18;8.85;;;4.30;;
22851;SDS011;11592;45.460;9.240;2023-02-18T17:37:47;6.72;;;4.38;;
22851;SDS011;11592;45.460;9.240;2023-02-18T17:40:18;7.80;;;4.05;;
22851;SDS011;11592;45.460;9.240;2023-02-18T17:42:47;7.50;;;4.40;;
22851;SDS011;11592;45.460;9.240;2023-02-18T17:47:44;8.15;;;6.03;;
22851;SDS011;11592;45.460;9.240;2023-02-18T17:50:11;5.53;;;4.15;;
22851;SDS011;11592;45.460;9.240;2023-02-18T17:52:38;7.00;;;4.88;;
22851;SDS011;11592;45.460;9.240;2023-02-18T17:55:14;8.13;;;4.65;;
22851;SDS011;11592;45.460;9.240;2023-02-18T17:57:49;7.13;;;4.65;;
22851;SDS011;11592;45.460;9.240;2023-02-18T18:00:18;8.27;;;4.57;;
22851;SDS011;11592;45.460;9.240;2023-02-18T18:02:51;10.18;;;4.85;;
22851;SDS011;11592;45.460;9.240;2023-02-18T18:07:49;7.47;;;5.05;;